sensor_id;sensor_type;location;lat;lon;timestamp;pressure;altitude;pressure_sealevel;temperature;humidity
54918;BME280;40818;50.562;7.454;2023-02-12T00:05:39;99750.19;;;4.10;100.00
54918;BME280;40818;50.562;7.454;2023-02-12T00:15:46;99759.66;;;4.07;100.00
54918;BME280;40818;50.562;7.454;2023-02-12T00:25:49;99757.91;;;4.15;100.00
54918;BME280;40818;50.562;7.454;2023-02-12T00:35:58;99754.41;;;4.24;100.00
54918;BME280;40818;50.562;7.454;2023-02-12T00:46:02;99746.63;;;4.32;100.00
54918;BME280;40818;50.562;7.454;2023-02-12T00:56:10;99744.03;;;4.35;100.00
54918;BME280;40818;50.562;7.454;2023-02-12T01:06:14;99757.72;;;4.37;100.00
54918;BME280;40818;50.562;7.454;2023-02-12T01:16:23;99762.88;;;4.37;100.00
54918;BME280;40818;50.562;7.454;2023-02-12T01:26:28;99756.84;;;4.39;100.00
54918;BME280;40818;50.562;7.454;2023-02-12T01:36:35;99744.00;;;4.38;100.00
54918;BME280;40818;50.562;7.454;2023-02-12T01:46:39;99748.34;;;4.34;100.00
54918;BME280;40818;50.562;7.454;2023-02-12T01:56:45;99737.13;;;4.43;100.00
54918;BME280;40818;50.562;7.454;2023-02-12T02:06:52;99748.25;;;4.43;100.00
54918;BME280;40818;50.562;7.454;2023-02-12T02:17:12;99741.34;;;4.50;100.00
54918;BME280;40818;50.562;7.454;2023-02-12T02:27:34;99739.59;;;4.52;100.00
54918;BME280;40818;50.562;7.454;2023-02-12T02:37:47;99732.72;;;4.56;100.00
54918;BME280;40818;50.562;7.454;2023-02-12T02:47:57;99725.81;;;4.61;100.00
54918;BME280;40818;50.562;7.454;2023-02-12T02:58:09;99717.22;;;4.62;100.00
54918;BME280;40818;50.562;7.454;2023-02-12T03:08:17;99721.50;;;4.63;100.00
54918;BME280;40818;50.562;7.454;2023-02-12T03:18:28;99724.91;;;4.65;100.00
54918;BME280;40818;50.562;7.454;2023-02-12T03:28:34;99721.47;;;4.68;100.00
54918;BME280;40818;50.562;7.454;2023-02-12T03:38:44;99715.50;;;4.64;100.00
54918;BME280;40818;50.562;7.454;2023-02-12T03:48:57;99729.22;;;4.63;100.00
54918;BME280;40818;50.562;7.454;2023-02-12T03:59:05;99728.41;;;4.59;100.00
54918;BME280;40818;50.562;7.454;2023-02-12T04:09:10;99730.13;;;4.56;100.00
54918;BME280;40818;50.562;7.454;2023-02-12T04:19:32;99735.31;;;4.54;100.00
54918;BME280;40818;50.562;7.454;2023-02-12T04:29:42;99740.41;;;4.57;100.00
54918;BME280;40818;50.562;7.454;2023-02-12T04:39:53;99739.56;;;4.57;100.00
54918;BME280;40818;50.562;7.454;2023-02-12T04:49:57;99749.00;;;4.58;100.00
54918;BME280;40818;50.562;7.454;2023-02-12T05:00:04;99750.66;;;4.60;100.00
54918;BME280;40818;50.562;7.454;2023-02-12T05:10:09;99748.13;;;4.59;100.00
54918;BME280;40818;50.562;7.454;2023-02-12T05:20:15;99747.25;;;4.60;100.00
54918;BME280;40818;50.562;7.454;2023-02-12T05:30:19;99744.03;;;4.35;100.00
54918;BME280;40818;50.562;7.454;2023-02-12T05:40:25;99744.78;;;4.48;100.00
54918;BME280;40818;50.562;7.454;2023-02-12T05:50:29;99751.69;;;4.46;100.00
54918;BME280;40818;50.562;7.454;2023-02-12T06:00:44;99764.56;;;4.39;100.00
54918;BME280;40818;50.562;7.454;2023-02-12T06:10:47;99773.06;;;4.49;100.00
54918;BME280;40818;50.562;7.454;2023-02-12T06:20:53;99786.75;;;4.53;100.00
54918;BME280;40818;50.562;7.454;2023-02-12T06:30:56;99789.34;;;4.53;100.00
54918;BME280;40818;50.562;7.454;2023-02-12T06:41:03;99797.88;;;4.55;100.00
54918;BME280;40818;50.562;7.454;2023-02-12T06:51:08;99797.03;;;4.56;100.00
54918;BME280;40818;50.562;7.454;2023-02-12T07:01:17;99797.09;;;4.50;100.00
54918;BME280;40818;50.562;7.454;2023-02-12T07:11:22;99800.56;;;4.41;100.00
54918;BME280;40818;50.562;7.454;2023-02-12T07:21:29;99809.97;;;4.43;100.00
54918;BME280;40818;50.562;7.454;2023-02-12T07:31:33;99819.53;;;4.21;100.00
54918;BME280;40818;50.562;7.454;2023-02-12T07:41:39;99822.09;;;4.26;100.00
54918;BME280;40818;50.562;7.454;2023-02-12T07:51:42;99821.19;;;4.35;100.00
54918;BME280;40818;50.562;7.454;2023-02-12T08:01:49;99817.69;;;4.43;100.00
54918;BME280;40818;50.562;7.454;2023-02-12T08:11:53;99821.91;;;4.55;100.00
54918;BME280;40818;50.562;7.454;2023-02-12T08:22:00;99818.34;;;4.73;100.00
54918;BME280;40818;50.562;7.454;2023-02-12T08:32:06;99822.50;;;4.85;100.00
54918;BME280;40818;50.562;7.454;2023-02-12T08:42:15;99831.84;;;4.94;100.00
54918;BME280;40818;50.562;7.454;2023-02-12T08:52:19;99826.72;;;4.94;100.00
54918;BME280;40818;50.562;7.454;2023-02-12T09:02:25;99843.69;;;5.17;100.00
54918;BME280;40818;50.562;7.454;2023-02-12T09:12:29;99843.38;;;5.47;100.00
54918;BME280;40818;50.562;7.454;2023-02-12T09:22:35;99843.84;;;5.82;100.00
54918;BME280;40818;50.562;7.454;2023-02-12T09:32:38;99850.69;;;5.83;100.00
54918;BME280;40818;50.562;7.454;2023-02-12T09:42:57;99848.25;;;5.72;100.00
54918;BME280;40818;50.562;7.454;2023-02-12T09:53:04;99850.16;;;5.55;100.00
54918;BME280;40818;50.562;7.454;2023-02-12T10:03:14;99859.41;;;5.73;100.00
54918;BME280;40818;50.562;7.454;2023-02-12T10:13:36;99867.69;;;6.03;100.00
54918;BME280;40818;50.562;7.454;2023-02-12T10:23:59;99862.53;;;6.01;100.00
54918;BME280;40818;50.562;7.454;2023-02-12T10:34:14;99868.56;;;5.95;100.00
54918;BME280;40818;50.562;7.454;2023-02-12T10:44:22;99863.22;;;6.15;100.00
54918;BME280;40818;50.562;7.454;2023-02-12T10:54:40;99857.91;;;6.25;100.00
54918;BME280;40818;50.562;7.454;2023-02-12T11:04:47;99854.22;;;6.44;100.00
54918;BME280;40818;50.562;7.454;2023-02-12T11:14:53;99839.72;;;6.36;100.00
54918;BME280;40818;50.562;7.454;2023-02-12T11:25:13;99836.91;;;6.49;100.00
54918;BME280;40818;50.562;7.454;2023-02-12T11:35:18;99822.06;;;6.65;100.00
54918;BME280;40818;50.562;7.454;2023-02-12T11:45:33;99820.81;;;7.38;100.00
54918;BME280;40818;50.562;7.454;2023-02-12T11:55:39;99809.19;;;7.59;100.00
54918;BME280;40818;50.562;7.454;2023-02-12T12:05:48;99802.28;;;7.60;100.00
54918;BME280;40818;50.562;7.454;2023-02-12T12:15:58;99790.19;;;7.62;100.00
54918;BME280;40818;50.562;7.454;2023-02-12T12:26:22;99777.00;;;7.74;100.00
54918;BME280;40818;50.562;7.454;2023-02-12T12:36:47;99778.94;;;7.64;100.00
54918;BME280;40818;50.562;7.454;2023-02-12T12:47:06;99774.69;;;7.62;100.00
54918;BME280;40818;50.562;7.454;2023-02-12T12:57:25;99776.63;;;7.50;100.00
54918;BME280;40818;50.562;7.454;2023-02-12T13:07:44;99763.38;;;7.24;100.00
54918;BME280;40818;50.562;7.454;2023-02-12T13:17:56;99746.63;;;6.98;100.00
54918;BME280;40818;50.562;7.454;2023-02-12T13:28:09;99738.97;;;6.93;100.00
54918;BME280;40818;50.562;7.454;2023-02-12T13:38:21;99727.75;;;6.96;100.00
54918;BME280;40818;50.562;7.454;2023-02-12T13:48:39;99733.06;;;6.87;100.00
54918;BME280;40818;50.562;7.454;2023-02-12T13:58:47;99727.91;;;6.87;100.00
54918;BME280;40818;50.562;7.454;2023-02-12T14:09:08;99717.25;;;6.58;100.00
54918;BME280;40818;50.562;7.454;2023-02-12T14:19:37;99709.69;;;6.47;100.00
54918;BME280;40818;50.562;7.454;2023-02-12T14:29:59;99713.88;;;6.53;100.00
54918;BME280;40818;50.562;7.454;2023-02-12T14:40:36;99713.06;;;6.49;100.00
54918;BME280;40818;50.562;7.454;2023-02-12T14:50:44;99725.22;;;6.44;100.00
54918;BME280;40818;50.562;7.454;2023-02-12T15:00:53;99729.47;;;6.45;100.00
54918;BME280;40818;50.562;7.454;2023-02-12T15:11:08;99720.97;;;6.42;100.00
54918;BME280;40818;50.562;7.454;2023-02-12T15:21:19;99709.72;;;6.44;100.00
54918;BME280;40818;50.562;7.454;2023-02-12T15:31:28;99711.63;;;6.33;100.00
54918;BME280;40818;50.562;7.454;2023-02-12T15:41:38;99712.47;;;6.35;100.00
54918;BME280;40818;50.562;7.454;2023-02-12T15:51:45;99703.84;;;6.35;100.00
54918;BME280;40818;50.562;7.454;2023-02-12T16:01:53;99697.09;;;6.27;100.00
54918;BME280;40818;50.562;7.454;2023-02-12T16:12:01;99688.63;;;6.19;100.00
54918;BME280;40818;50.562;7.454;2023-02-12T16:22:14;99689.59;;;6.13;100.00
54918;BME280;40818;50.562;7.454;2023-02-12T16:32:31;99686.31;;;6.02;100.00
54918;BME280;40818;50.562;7.454;2023-02-12T16:42:35;99702.72;;;5.98;100.00
54918;BME280;40818;50.562;7.454;2023-02-12T16:52:41;99702.09;;;5.80;100.00
54918;BME280;40818;50.562;7.454;2023-02-12T17:02:45;99705.59;;;5.76;100.00
54918;BME280;40818;50.562;7.454;2023-02-12T17:12:51;99714.28;;;5.68;100.00
54918;BME280;40818;50.562;7.454;2023-02-12T17:22:55;99717.78;;;5.62;100.00
54918;BME280;40818;50.562;7.454;2023-02-12T17:33:03;99729.81;;;5.63;100.00
54918;BME280;40818;50.562;7.454;2023-02-12T17:43:06;99722.94;;;5.65;100.00
54918;BME280;40818;50.562;7.454;2023-02-12T17:53:13;99717.84;;;5.59;100.00
54918;BME280;40818;50.562;7.454;2023-02-12T18:03:16;99731.63;;;5.55;100.00
54918;BME280;40818;50.562;7.454;2023-02-12T18:13:22;99733.31;;;5.57;100.00
54918;BME280;40818;50.562;7.454;2023-02-12T18:23:26;99735.97;;;5.53;100.00
54918;BME280;40818;50.562;7.454;2023-02-12T18:33:32;99735.22;;;5.41;100.00
54918;BME280;40818;50.562;7.454;2023-02-12T18:43:36;99740.50;;;5.32;100.00
54918;BME280;40818;50.562;7.454;2023-02-12T18:53:42;99744.78;;;5.32;100.00
54918;BME280;40818;50.562;7.454;2023-02-12T19:03:46;99731.94;;;5.30;100.00
54918;BME280;40818;50.562;7.454;2023-02-12T19:13:53;99741.34;;;5.33;100.00
54918;BME280;40818;50.562;7.454;2023-02-12T19:23:59;99732.88;;;5.24;100.00
54918;BME280;40818;50.562;7.454;2023-02-12T19:34:06;99738.06;;;5.20;100.00
54918;BME280;40818;50.562;7.454;2023-02-12T19:44:15;99741.50;;;5.20;100.00
54918;BME280;40818;50.562;7.454;2023-02-12T19:54:23;99726.16;;;5.12;100.00
54918;BME280;40818;50.562;7.454;2023-02-12T20:04:26;99715.88;;;5.08;100.00
54918;BME280;40818;50.562;7.454;2023-02-12T20:14:33;99718.50;;;5.05;100.00
54918;BME280;40818;50.562;7.454;2023-02-12T20:24:36;99714.22;;;5.02;100.00
54918;BME280;40818;50.562;7.454;2023-02-12T20:34:43;99719.41;;;4.99;100.00
54918;BME280;40818;50.562;7.454;2023-02-12T20:44:46;99717.78;;;4.92;100.00
54918;BME280;40818;50.562;7.454;2023-02-12T20:54:52;99721.25;;;4.88;100.00
54918;BME280;40818;50.562;7.454;2023-02-12T21:04:56;99720.44;;;4.83;100.00
54918;BME280;40818;50.562;7.454;2023-02-12T21:15:02;99721.31;;;4.83;100.00
54918;BME280;40818;50.562;7.454;2023-02-12T21:25:06;99712.75;;;4.81;100.00
54918;BME280;40818;50.562;7.454;2023-02-12T21:35:12;99713.69;;;4.74;100.00
54918;BME280;40818;50.562;7.454;2023-02-12T21:45:16;99730.84;;;4.73;100.00
54918;BME280;40818;50.562;7.454;2023-02-12T21:55:22;99717.97;;;4.73;100.00
54918;BME280;40818;50.562;7.454;2023-02-12T22:05:25;99708.56;;;4.72;100.00
54918;BME280;40818;50.562;7.454;2023-02-12T22:15:31;99711.09;;;4.74;100.00
54918;BME280;40818;50.562;7.454;2023-02-12T22:25:35;99733.44;;;4.72;100.00
54918;BME280;40818;50.562;7.454;2023-02-12T22:35:41;99730.88;;;4.72;100.00
54918;BME280;40818;50.562;7.454;2023-02-12T22:45:44;99729.16;;;4.69;100.00
54918;BME280;40818;50.562;7.454;2023-02-12T22:55:51;99725.72;;;4.70;100.00
54918;BME280;40818;50.562;7.454;2023-02-12T23:05:55;99729.13;;;4.72;100.00
54918;BME280;40818;50.562;7.454;2023-02-12T23:16:01;99727.41;;;4.71;100.00
54918;BME280;40818;50.562;7.454;2023-02-12T23:26:05;99729.13;;;4.72;100.00
54918;BME280;40818;50.562;7.454;2023-02-12T23:36:11;99729.16;;;4.69;100.00
54918;BME280;40818;50.562;7.454;2023-02-12T23:46:14;99725.78;;;4.64;100.00
54918;BME280;40818;50.562;7.454;2023-02-12T23:56:20;99724.09;;;4.60;100.00
